createdAt,value
2023-01-26T00:04:19.969Z,0.90
2023-01-26T00:09:22.606Z,1.00
2023-01-26T00:14:25.164Z,1.10
2023-01-26T00:19:27.701Z,0.90
2023-01-26T00:24:30.292Z,0.80
2023-01-26T00:29:32.742Z,0.90
2023-01-26T00:34:35.898Z,0.80
2023-01-26T00:39:38.821Z,0.80
2023-01-26T00:44:43.062Z,0.90
2023-01-26T00:49:45.823Z,1.00
2023-01-26T00:54:48.343Z,0.80
2023-01-26T00:59:50.845Z,0.60
2023-01-26T01:04:53.280Z,0.70
2023-01-26T01:09:55.799Z,0.70
2023-01-26T01:14:58.307Z,0.80
2023-01-26T01:20:00.826Z,0.90
2023-01-26T01:25:03.839Z,1.00
2023-01-26T01:30:08.300Z,1.00
2023-01-26T01:35:10.955Z,1.00
2023-01-26T01:40:14.067Z,0.90
2023-01-26T01:45:42.744Z,0.80
2023-01-26T01:50:46.145Z,0.80
2023-01-26T01:55:48.966Z,0.80
2023-01-26T02:00:51.810Z,1.00
2023-01-26T02:06:16.208Z,1.00
2023-01-26T02:11:41.868Z,1.00
2023-01-26T02:16:44.469Z,1.00
2023-01-26T02:21:49.723Z,0.80
2023-01-26T02:26:54.691Z,0.90
2023-01-26T02:31:57.730Z,1.00
2023-01-26T02:37:00.960Z,0.90
2023-01-26T02:42:23.086Z,0.80
2023-01-26T02:47:25.671Z,0.90
2023-01-26T02:52:31.718Z,0.90
2023-01-26T02:57:42.624Z,0.90
2023-01-26T03:02:47.250Z,0.70
2023-01-26T03:07:50.026Z,0.70
2023-01-26T03:12:55.259Z,0.80
2023-01-26T03:18:32.440Z,0.80
2023-01-26T03:23:53.328Z,0.90
2023-01-26T03:28:57.352Z,0.90
2023-01-26T03:33:59.938Z,0.90
2023-01-26T03:39:02.602Z,0.80
2023-01-26T03:44:23.747Z,0.60
2023-01-26T03:49:45.581Z,0.50
2023-01-26T03:55:06.559Z,0.70
2023-01-26T04:00:10.269Z,0.70
2023-01-26T04:05:33.713Z,0.70
2023-01-26T04:10:38.433Z,0.80
2023-01-26T04:15:59.964Z,3.40
2023-01-26T04:21:23.073Z,0.70
2023-01-26T04:26:34.839Z,0.60
2023-01-26T04:31:40.569Z,0.60
2023-01-26T04:36:43.577Z,0.60
2023-01-26T04:41:46.292Z,0.50
2023-01-26T04:46:51.177Z,0.70
2023-01-26T04:51:54.076Z,0.80
2023-01-26T04:56:56.767Z,0.70
2023-01-26T05:01:59.374Z,0.80
2023-01-26T05:07:02.271Z,0.70
2023-01-26T05:12:23.802Z,0.80
2023-01-26T05:17:49.220Z,0.80
2023-01-26T05:23:26.939Z,0.80
2023-01-26T05:29:08.004Z,0.90
2023-01-26T05:34:10.924Z,0.90
2023-01-26T05:39:13.548Z,0.90
2023-01-26T05:44:16.225Z,0.90
2023-01-26T05:49:25.877Z,0.80
2023-01-26T05:54:30.332Z,0.80
2023-01-26T05:59:33.014Z,0.60
2023-01-26T06:04:36.101Z,0.60
2023-01-26T06:09:39.688Z,0.70
2023-01-26T06:14:48.585Z,0.80
2023-01-26T06:19:51.461Z,0.80
2023-01-26T06:24:54.342Z,0.80
2023-01-26T06:29:59.268Z,0.80
2023-01-26T06:35:03.319Z,0.80
2023-01-26T06:40:06.953Z,0.80
2023-01-26T06:45:10.919Z,0.80
2023-01-26T06:50:16.559Z,0.90
2023-01-26T06:55:43.553Z,0.90
2023-01-26T07:01:31.766Z,0.90
2023-01-26T07:06:34.352Z,0.80
2023-01-26T07:11:37.572Z,0.80
2023-01-26T07:16:40.171Z,0.80
2023-01-26T07:21:42.917Z,0.80
2023-01-26T07:26:45.353Z,0.90
2023-01-26T07:31:47.939Z,1.00
2023-01-26T07:36:52.941Z,1.10
2023-01-26T07:41:55.541Z,1.20
2023-01-26T07:47:15.531Z,1.30
2023-01-26T07:52:18.104Z,1.40
2023-01-26T07:57:20.725Z,1.40
2023-01-26T08:02:23.338Z,1.40
2023-01-26T08:07:26.306Z,1.50
2023-01-26T08:12:29.501Z,1.60
2023-01-26T08:17:33.974Z,1.70
2023-01-26T08:22:36.413Z,1.70
2023-01-26T08:27:39.086Z,1.70
2023-01-26T08:32:41.748Z,1.60
2023-01-26T08:37:44.303Z,1.60
2023-01-26T08:42:46.810Z,1.50
2023-01-26T08:47:51.356Z,1.60
2023-01-26T08:52:56.837Z,1.60
2023-01-26T08:58:00.859Z,1.70
2023-01-26T09:03:05.624Z,1.80
2023-01-26T09:08:09.634Z,1.90
2023-01-26T09:13:13.398Z,1.80
2023-01-26T09:18:16.156Z,1.70
2023-01-26T09:23:18.823Z,1.80
2023-01-26T09:28:21.294Z,1.90
2023-01-26T09:33:23.867Z,1.90
2023-01-26T09:38:27.528Z,1.90
2023-01-26T09:43:42.971Z,1.90
2023-01-26T09:49:11.211Z,1.90
2023-01-26T09:54:21.305Z,1.90
2023-01-26T09:59:32.589Z,1.90
2023-01-26T10:04:40.885Z,2.00
2023-01-26T10:09:49.938Z,2.00
2023-01-26T10:15:03.006Z,2.00
2023-01-26T10:20:27.596Z,2.10
2023-01-26T10:25:39.469Z,2.20
2023-01-26T10:30:44.113Z,2.10
2023-01-26T10:35:47.771Z,2.00
2023-01-26T10:40:50.423Z,2.20
2023-01-26T10:45:53.151Z,2.10
2023-01-26T10:51:15.793Z,2.10
2023-01-26T10:56:18.564Z,2.00
2023-01-26T11:01:27.705Z,2.00
2023-01-26T11:06:31.173Z,2.00
2023-01-26T11:11:33.787Z,2.00
2023-01-26T11:16:37.231Z,2.10
2023-01-26T11:21:58.647Z,2.20
2023-01-26T11:27:16.199Z,2.10
2023-01-26T11:32:35.562Z,2.10
2023-01-26T11:37:46.593Z,2.30
2023-01-26T11:43:01.697Z,2.30
2023-01-26T11:48:21.318Z,2.50
2023-01-26T11:53:35.559Z,2.50
2023-01-26T11:58:50.181Z,2.40
2023-01-26T12:03:53.214Z,2.40
2023-01-26T12:09:20.713Z,2.50
2023-01-26T12:14:58.343Z,2.30
2023-01-26T12:20:24.932Z,2.20
2023-01-26T12:25:37.974Z,2.40
2023-01-26T12:31:10.319Z,2.50
2023-01-26T12:36:36.831Z,2.40
2023-01-26T12:41:48.144Z,2.40
2023-01-26T12:47:16.373Z,2.10
2023-01-26T12:52:42.228Z,2.20
2023-01-26T12:58:02.457Z,2.00
2023-01-26T13:03:22.454Z,2.00
2023-01-26T13:08:31.098Z,2.00
2023-01-26T13:13:36.109Z,1.90
2023-01-26T13:18:59.931Z,1.90
2023-01-26T13:24:02.588Z,1.90
2023-01-26T13:29:28.195Z,2.00
2023-01-26T13:34:44.844Z,2.00
2023-01-26T13:39:54.263Z,2.00
2023-01-26T13:45:06.516Z,4.90
2023-01-26T13:50:31.568Z,1.70
2023-01-26T13:55:34.625Z,1.60
2023-01-26T14:00:37.251Z,1.50
2023-01-26T14:05:40.633Z,1.50
2023-01-26T14:10:43.714Z,1.60
2023-01-26T14:15:56.507Z,1.60
2023-01-26T14:21:05.304Z,1.60
2023-01-26T14:26:21.548Z,1.50
2023-01-26T14:31:26.648Z,1.50
2023-01-26T14:36:39.186Z,1.50
2023-01-26T14:41:42.539Z,1.50
2023-01-26T14:46:48.082Z,1.40
2023-01-26T14:51:56.657Z,1.30
2023-01-26T14:57:00.456Z,1.30
2023-01-26T15:02:21.198Z,1.20
2023-01-26T15:07:37.765Z,1.30
2023-01-26T15:12:40.538Z,1.30
2023-01-26T15:17:43.572Z,1.30
2023-01-26T15:22:51.693Z,1.20
2023-01-26T15:27:58.903Z,1.10
2023-01-26T15:33:02.561Z,1.20
2023-01-26T15:38:13.085Z,1.10
2023-01-26T15:43:17.451Z,1.00
2023-01-26T15:48:20.523Z,0.90
2023-01-26T15:53:23.336Z,0.90
2023-01-26T15:58:26.312Z,0.90
2023-01-26T16:03:28.963Z,0.90
2023-01-26T16:08:31.497Z,0.90
2023-01-26T16:13:34.388Z,0.90
2023-01-26T16:18:36.975Z,0.80
2023-01-26T16:23:39.562Z,0.80
2023-01-26T16:28:42.478Z,0.80
2023-01-26T16:33:45.925Z,0.80
2023-01-26T16:38:48.879Z,1.00
2023-01-26T16:43:53.636Z,1.00
2023-01-26T16:48:57.111Z,0.90
2023-01-26T16:53:59.740Z,0.90
2023-01-26T16:59:03.538Z,1.00
2023-01-26T17:04:06.976Z,0.90
2023-01-26T17:09:10.455Z,0.90
2023-01-26T17:14:13.240Z,0.80
2023-01-26T17:19:15.707Z,0.70
2023-01-26T17:24:18.612Z,0.70
2023-01-26T17:29:21.203Z,0.60
2023-01-26T17:34:23.836Z,0.60
2023-01-26T17:39:27.035Z,0.60
2023-01-26T17:44:29.738Z,0.40
2023-01-26T17:49:32.678Z,0.40
2023-01-26T17:54:35.445Z,0.40
2023-01-26T17:59:38.066Z,0.50
2023-01-26T18:04:40.483Z,0.40
2023-01-26T18:09:43.091Z,0.50
2023-01-26T18:14:45.798Z,0.50
2023-01-26T18:19:48.314Z,0.50
2023-01-26T18:24:51.187Z,0.50
2023-01-26T18:29:54.061Z,0.50
2023-01-26T18:34:56.695Z,0.50
2023-01-26T18:40:00.171Z,0.60
2023-01-26T18:45:02.738Z,0.70
2023-01-26T18:50:06.078Z,0.60
2023-01-26T18:55:10.696Z,0.50
2023-01-26T19:00:14.059Z,0.40
2023-01-26T19:05:16.595Z,0.40
2023-01-26T19:10:19.163Z,0.40
2023-01-26T19:15:21.789Z,0.40
2023-01-26T19:20:24.621Z,0.40
2023-01-26T19:25:27.144Z,0.50
2023-01-26T19:30:29.940Z,0.50
2023-01-26T19:35:32.789Z,0.50
2023-01-26T19:40:35.918Z,0.60
2023-01-26T19:45:39.563Z,0.60
2023-01-26T19:50:42.375Z,0.60
2023-01-26T19:55:44.848Z,0.60
2023-01-26T20:00:47.606Z,0.60
2023-01-26T20:05:51.401Z,0.60
2023-01-26T20:10:54.217Z,0.60
2023-01-26T20:15:58.215Z,0.50
2023-01-26T20:21:01.140Z,0.40
2023-01-26T20:26:51.559Z,0.30
2023-01-26T20:31:54.351Z,0.30
2023-01-26T20:37:00.180Z,0.30
2023-01-26T20:42:04.120Z,0.50
2023-01-26T20:47:07.121Z,0.60
2023-01-26T20:52:09.829Z,0.60
2023-01-26T20:57:12.563Z,0.60
2023-01-26T21:02:16.258Z,0.70
2023-01-26T21:07:19.089Z,0.60
2023-01-26T21:12:21.947Z,0.50
2023-01-26T21:17:26.197Z,0.40
2023-01-26T21:22:28.962Z,0.40
2023-01-26T21:27:31.638Z,0.40
2023-01-26T21:32:34.350Z,0.50
2023-01-26T21:37:36.932Z,0.50
2023-01-26T21:42:39.494Z,0.50
2023-01-26T21:47:42.132Z,0.50
2023-01-26T21:52:59.911Z,0.60
2023-01-26T21:58:20.978Z,-0.60
2023-01-26T22:03:26.196Z,0.60
2023-01-26T22:08:31.071Z,0.50
2023-01-26T22:13:35.912Z,0.40
2023-01-26T22:18:39.703Z,0.40
2023-01-26T22:23:42.714Z,0.40
2023-01-26T22:28:50.394Z,0.50
2023-01-26T22:33:54.113Z,0.50
2023-01-26T22:38:59.050Z,0.50
2023-01-26T22:44:02.220Z,0.60
2023-01-26T22:49:05.049Z,0.60
2023-01-26T22:54:07.647Z,0.60
2023-01-26T22:59:10.132Z,0.50
2023-01-26T23:04:13.576Z,0.50
2023-01-26T23:09:16.289Z,0.40
2023-01-26T23:14:18.965Z,0.40
2023-01-26T23:19:21.536Z,0.40
2023-01-26T23:24:24.109Z,0.40
2023-01-26T23:29:26.695Z,0.30
2023-01-26T23:34:29.677Z,0.30
2023-01-26T23:39:32.258Z,0.30
2023-01-26T23:44:34.797Z,0.50
2023-01-26T23:49:37.263Z,0.50
2023-01-26T23:54:39.775Z,0.60
2023-01-26T23:59:42.317Z,0.50
